Malaa-braennan, Sweden

4:11 AM CET on December 06, 2016 (GMT +0100)
Granstigen | | Change Station

Elev -10000 ft 65.19 °N, 18.76 °E | Updated 5 minutes ago

Clear
Clear
14.2 °F
Feels Like 14 °F
N
0.6
Wind Variable Wind from SW
Gusts 1.2 mph

Today
High -- | Low -- °F
--% Chance of Precip.
Yesterday
High -- | Low -- °F
Precip. -- in
Pressure 30.09 in
Visibility 6.2 miles
Clouds
Windchill 14 °F
Dew Point 14 °F
Humidity 100%
Rainfall 0.00 in
Snow Depth Not available.
9:33 AM 1:39 PM
Waxing Crescent, 37% visible
METAR ESUD 060250Z AUTO 10002KT 9999 NCD M10/M12 Q1019
Pressure 30.09 in
Visibility 6.2 miles
Clouds
Windchill 14 °F
Dew Point 14 °F
Humidity 100%
Rainfall 0.00 in
Snow Depth Not available.
9:33 AM 1:39 PM
Waxing Crescent, 37% visible
METAR ESUD 060250Z AUTO 10002KT 9999 NCD M10/M12 Q1019

10-Day Weather Forecast

×

Almanac

Astronomy

Dec. 06, 2016 Rise Set
Actual Time
Civil Twilight
Nautical Twilight
Astronomical Twilight
Moon
Length of Visible Light
Length of Day
Tomorrow will be .
, % of the Moon is Illuminated

Today's Extremes

Country Highs Country Lows

Community

WunderPhotos

Upload Photos

1,955,916 photos uploaded!

WunderBlog® & News

Nearby

Air Quality

  Air Quality AQ Index Pollutant
Not available.

Snow Depth

Station Depth Elevation

Earthquake Activity

City Distance Mag. Time & Date
Minimum magnitude displayed is 2.5.

Coastal Water Temperatures

Place Temperature

Stations

Nearby Weather Stations

Station Location Temp. Windchill Dew Point Humidity Wind Precip. Elev Updated Type